SWA1523 KGRR-KBWI
Flight info
| Callsign | SWA1523 |
|---|---|
| Flight time | 1h 13m |
| Altitude | 29000 |
| Route | VIO HASTE J34 SPOOL NUSMM ANTHM5 |
| Aircraft | B38M/M-SDE1FGHILORVWXY/HB1 |
Departure
| Time | 2026-05-06 03:44 |
|---|---|
| Airport | Gerald R. Ford International Airport (KGRR) |
Arrival
| Time | 2026-05-06 04:58 |
|---|---|
| Airport | Baltimore/Washington International Thurgood Marshall Airport (KBWI) |
| Time | Latitude | Longitude | Altitude | Speed | Heading |
|---|---|---|---|---|---|
| 2026-05-06 03:28 | 42.88462 | -85.52710 | 805 ft | 0 kts | 352° |
| 2026-05-06 03:36 | 42.88459 | -85.52709 | 805 ft | 2 kts | 352° |
| 2026-05-06 03:36 | 42.88441 | -85.52706 | 804 ft | 3 kts | 352° |
| 2026-05-06 03:36 | 42.88423 | -85.52702 | 804 ft | 2 kts | 352° |
| 2026-05-06 03:37 | 42.88405 | -85.52702 | 804 ft | 3 kts | 18° |
| 2026-05-06 03:37 | 42.88391 | -85.52715 | 804 ft | 3 kts | 64° |
| 2026-05-06 03:37 | 42.88386 | -85.52738 | 804 ft | 2 kts | 78° |
| 2026-05-06 03:37 | 42.88384 | -85.52747 | 804 ft | 0 kts | 78° |
| 2026-05-06 03:40 | 42.88387 | -85.52728 | 804 ft | 8 kts | 78° |
| 2026-05-06 03:40 | 42.88404 | -85.52582 | 802 ft | 22 kts | 81° |
| 2026-05-06 03:40 | 42.88430 | -85.52354 | 799 ft | 26 kts | 82° |
| 2026-05-06 03:40 | 42.88456 | -85.52121 | 800 ft | 23 kts | 81° |
| 2026-05-06 03:41 | 42.88481 | -85.51903 | 802 ft | 26 kts | 81° |
| 2026-05-06 03:41 | 42.88512 | -85.51626 | 801 ft | 31 kts | 81° |
| 2026-05-06 03:41 | 42.88544 | -85.51329 | 795 ft | 22 kts | 82° |
| 2026-05-06 03:41 | 42.88561 | -85.51143 | 797 ft | 14 kts | 104° |
| 2026-05-06 03:42 | 42.88487 | -85.51074 | 798 ft | 16 kts | 173° |
| 2026-05-06 03:42 | 42.88338 | -85.51044 | 798 ft | 26 kts | 171° |
| 2026-05-06 03:42 | 42.88211 | -85.50975 | 801 ft | 12 kts | 102° |
| 2026-05-06 03:42 | 42.88225 | -85.50830 | 801 ft | 21 kts | 79° |
| 2026-05-06 03:43 | 42.88238 | -85.50620 | 802 ft | 20 kts | 116° |
| 2026-05-06 03:43 | 42.88113 | -85.50570 | 806 ft | 19 kts | 189° |
| 2026-05-06 03:43 | 42.88056 | -85.50724 | 805 ft | 21 kts | 263° |
| 2026-05-06 03:43 | 42.88009 | -85.51182 | 804 ft | 83 kts | 262° |
| 2026-05-06 03:44 | 42.87889 | -85.52239 | 802 ft | 140 kts | 261° |
| 2026-05-06 03:44 | 42.87726 | -85.53706 | 1061 ft | 168 kts | 262° |
| 2026-05-06 03:44 | 42.87558 | -85.55358 | 1707 ft | 178 kts | 264° |
| 2026-05-06 03:44 | 42.87410 | -85.57024 | 2581 ft | 177 kts | 264° |
| 2026-05-06 03:45 | 42.86863 | -85.58630 | 3094 ft | 206 kts | 225° |
| 2026-05-06 03:45 | 42.85484 | -85.59423 | 3536 ft | 239 kts | 183° |
| 2026-05-06 03:45 | 42.83798 | -85.58882 | 4118 ft | 261 kts | 153° |
| 2026-05-06 03:45 | 42.82314 | -85.57358 | 4845 ft | 277 kts | 127° |
| 2026-05-06 03:46 | 42.81423 | -85.55049 | 5879 ft | 277 kts | 113° |
| 2026-05-06 03:46 | 42.80550 | -85.52651 | 6739 ft | 288 kts | 117° |
| 2026-05-06 03:46 | 42.79628 | -85.50191 | 7643 ft | 294 kts | 118° |
| 2026-05-06 03:46 | 42.78685 | -85.47669 | 8518 ft | 303 kts | 120° |
| 2026-05-06 03:47 | 42.77721 | -85.45089 | 9448 ft | 309 kts | 122° |
| 2026-05-06 03:47 | 42.76733 | -85.42444 | 10239 ft | 318 kts | 122° |
| 2026-05-06 03:47 | 42.75705 | -85.39699 | 10814 ft | 333 kts | 122° |
| 2026-05-06 03:47 | 42.74630 | -85.36835 | 11433 ft | 346 kts | 122° |
| 2026-05-06 03:48 | 42.73521 | -85.33877 | 12141 ft | 355 kts | 122° |
| 2026-05-06 03:48 | 42.72391 | -85.30859 | 12993 ft | 359 kts | 122° |
| 2026-05-06 03:48 | 42.71255 | -85.27823 | 13824 ft | 364 kts | 122° |
| 2026-05-06 03:48 | 42.70099 | -85.24739 | 14562 ft | 369 kts | 122° |
| 2026-05-06 03:49 | 42.68922 | -85.21603 | 15276 ft | 375 kts | 122° |
| 2026-05-06 03:49 | 42.67728 | -85.18424 | 16004 ft | 380 kts | 123° |
| 2026-05-06 03:49 | 42.66557 | -85.15163 | 16711 ft | 387 kts | 121° |
| 2026-05-06 03:49 | 42.65391 | -85.11848 | 17420 ft | 392 kts | 121° |
| 2026-05-06 03:50 | 42.64200 | -85.08483 | 18109 ft | 397 kts | 121° |
| 2026-05-06 03:50 | 42.62992 | -85.05080 | 18705 ft | 402 kts | 122° |
| 2026-05-06 03:50 | 42.61773 | -85.01648 | 19334 ft | 405 kts | 122° |
| 2026-05-06 03:50 | 42.60541 | -84.98188 | 19948 ft | 409 kts | 122° |
| 2026-05-06 03:51 | 42.59304 | -84.94717 | 20546 ft | 413 kts | 122° |
| 2026-05-06 03:51 | 42.58045 | -84.91190 | 21127 ft | 417 kts | 122° |
| 2026-05-06 03:51 | 42.56777 | -84.87639 | 21709 ft | 420 kts | 122° |
| 2026-05-06 03:51 | 42.55494 | -84.84054 | 22278 ft | 424 kts | 123° |
| 2026-05-06 03:52 | 42.54198 | -84.80437 | 22840 ft | 428 kts | 123° |
| 2026-05-06 03:52 | 42.52891 | -84.76791 | 23408 ft | 432 kts | 123° |
| 2026-05-06 03:52 | 42.51570 | -84.73115 | 23876 ft | 435 kts | 123° |
| 2026-05-06 03:52 | 42.50238 | -84.69411 | 24337 ft | 439 kts | 123° |
| 2026-05-06 03:53 | 42.48902 | -84.65700 | 24735 ft | 442 kts | 123° |
| 2026-05-06 03:53 | 42.47546 | -84.61941 | 25152 ft | 446 kts | 123° |
| 2026-05-06 03:53 | 42.46181 | -84.58159 | 25606 ft | 448 kts | 123° |
| 2026-05-06 03:53 | 42.45270 | -84.55639 | 25903 ft | 450 kts | 123° |
| 2026-05-06 03:54 | 42.43888 | -84.51817 | 26342 ft | 453 kts | 123° |
| 2026-05-06 03:54 | 42.42042 | -84.46720 | 26920 ft | 457 kts | 124° |
| 2026-05-06 03:54 | 42.41097 | -84.44111 | 27220 ft | 459 kts | 124° |
| 2026-05-06 03:54 | 42.39223 | -84.38948 | 27781 ft | 463 kts | 124° |
| 2026-05-06 03:55 | 42.38268 | -84.36321 | 28043 ft | 465 kts | 124° |
| 2026-05-06 03:55 | 42.36835 | -84.32386 | 28457 ft | 467 kts | 124° |
| 2026-05-06 03:55 | 42.35394 | -84.28431 | 28828 ft | 470 kts | 124° |
| 2026-05-06 03:55 | 42.33939 | -84.24444 | 28998 ft | 475 kts | 124° |
| 2026-05-06 03:56 | 42.31029 | -84.16484 | 28962 ft | 472 kts | 124° |
| 2026-05-06 03:56 | 42.28118 | -84.08545 | 28967 ft | 472 kts | 124° |
| 2026-05-06 03:57 | 42.25224 | -84.00675 | 28968 ft | 472 kts | 124° |
| 2026-05-06 03:57 | 42.22293 | -83.92729 | 28969 ft | 474 kts | 124° |
| 2026-05-06 03:58 | 42.19352 | -83.84775 | 28968 ft | 474 kts | 124° |
| 2026-05-06 03:58 | 42.16404 | -83.76828 | 28957 ft | 473 kts | 124° |
| 2026-05-06 03:59 | 42.13461 | -83.68913 | 28957 ft | 473 kts | 124° |
| 2026-05-06 03:59 | 42.10572 | -83.61166 | 28958 ft | 473 kts | 124° |
| 2026-05-06 04:00 | 42.09086 | -83.57190 | 29295 ft | 474 kts | 124° |
| 2026-05-06 04:00 | 42.07607 | -83.53236 | 29791 ft | 473 kts | 124° |
| 2026-05-06 04:00 | 42.06129 | -83.49286 | 30248 ft | 473 kts | 124° |
| 2026-05-06 04:00 | 42.04594 | -83.45395 | 30584 ft | 469 kts | 130° |
| 2026-05-06 04:01 | 42.02737 | -83.41817 | 30924 ft | 467 kts | 133° |
| 2026-05-06 04:01 | 42.00868 | -83.38227 | 31225 ft | 470 kts | 133° |
| 2026-05-06 04:01 | 41.98985 | -83.34619 | 31477 ft | 473 kts | 133° |
| 2026-05-06 04:01 | 41.97084 | -83.30986 | 31754 ft | 476 kts | 133° |
| 2026-05-06 04:02 | 41.95174 | -83.27341 | 32067 ft | 478 kts | 133° |
| 2026-05-06 04:02 | 41.93279 | -83.23729 | 32372 ft | 480 kts | 133° |
| 2026-05-06 04:02 | 41.91350 | -83.20056 | 32653 ft | 482 kts | 133° |
| 2026-05-06 04:02 | 41.89393 | -83.16336 | 32880 ft | 485 kts | 133° |
| 2026-05-06 04:03 | 41.85462 | -83.08877 | 32876 ft | 501 kts | 133° |
| 2026-05-06 04:03 | 41.81381 | -83.01152 | 32887 ft | 514 kts | 133° |
| 2026-05-06 04:04 | 41.77209 | -82.93274 | 32879 ft | 519 kts | 133° |
| 2026-05-06 04:04 | 41.73006 | -82.85359 | 32870 ft | 525 kts | 132° |
| 2026-05-06 04:05 | 41.68760 | -82.77384 | 32879 ft | 525 kts | 132° |
| 2026-05-06 04:05 | 41.64517 | -82.69438 | 32885 ft | 525 kts | 132° |
| 2026-05-06 04:06 | 41.60269 | -82.61502 | 32886 ft | 525 kts | 132° |
| 2026-05-06 04:06 | 41.56015 | -82.53576 | 32887 ft | 525 kts | 132° |
| 2026-05-06 04:07 | 41.51754 | -82.45656 | 32836 ft | 526 kts | 132° |
| 2026-05-06 04:07 | 41.47449 | -82.37674 | 32870 ft | 531 kts | 131° |
| 2026-05-06 04:08 | 41.43145 | -82.29719 | 32887 ft | 530 kts | 131° |
| 2026-05-06 04:08 | 41.38827 | -82.21757 | 32888 ft | 530 kts | 131° |
| 2026-05-06 04:09 | 41.34048 | -82.14528 | 32895 ft | 508 kts | 151° |
| 2026-05-06 04:09 | 41.28476 | -82.08692 | 32844 ft | 510 kts | 150° |
| 2026-05-06 04:10 | 41.22884 | -82.02931 | 32888 ft | 513 kts | 151° |
| 2026-05-06 04:10 | 41.17200 | -81.97116 | 32876 ft | 512 kts | 151° |
| 2026-05-06 04:11 | 41.11583 | -81.91383 | 32869 ft | 512 kts | 151° |
| 2026-05-06 04:11 | 41.05942 | -81.85639 | 32805 ft | 512 kts | 151° |
| 2026-05-06 04:12 | 41.00282 | -81.79888 | 32867 ft | 513 kts | 151° |
| 2026-05-06 04:12 | 40.94613 | -81.74140 | 32865 ft | 513 kts | 151° |
| 2026-05-06 04:13 | 40.88951 | -81.68413 | 32863 ft | 513 kts | 151° |
| 2026-05-06 04:13 | 40.83282 | -81.62691 | 32856 ft | 513 kts | 151° |
| 2026-05-06 04:14 | 40.77605 | -81.56975 | 32826 ft | 513 kts | 151° |
| 2026-05-06 04:14 | 40.71920 | -81.51262 | 32826 ft | 513 kts | 151° |
| 2026-05-06 04:15 | 40.66243 | -81.45570 | 32813 ft | 513 kts | 151° |
| 2026-05-06 04:15 | 40.60560 | -81.39885 | 32815 ft | 513 kts | 151° |
| 2026-05-06 04:16 | 40.54876 | -81.34212 | 32800 ft | 512 kts | 151° |
| 2026-05-06 04:16 | 40.49207 | -81.28565 | 32815 ft | 512 kts | 151° |
| 2026-05-06 04:17 | 40.43531 | -81.22906 | 32805 ft | 513 kts | 150° |
| 2026-05-06 04:17 | 40.37913 | -81.17088 | 32808 ft | 514 kts | 149° |
| 2026-05-06 04:18 | 40.32323 | -81.11333 | 32811 ft | 514 kts | 150° |
| 2026-05-06 04:18 | 40.26710 | -81.05569 | 32818 ft | 514 kts | 149° |
| 2026-05-06 04:19 | 40.21210 | -80.99932 | 32831 ft | 514 kts | 150° |
| 2026-05-06 04:19 | 40.15581 | -80.94176 | 32857 ft | 514 kts | 150° |
| 2026-05-06 04:20 | 40.09956 | -80.88436 | 32818 ft | 514 kts | 149° |
| 2026-05-06 04:20 | 40.04622 | -80.82127 | 32832 ft | 527 kts | 133° |
| 2026-05-06 04:21 | 40.02716 | -80.78006 | 32802 ft | 536 kts | 115° |
| 2026-05-06 04:21 | 40.01554 | -80.73378 | 32837 ft | 539 kts | 106° |
| 2026-05-06 04:21 | 39.99463 | -80.63971 | 32814 ft | 540 kts | 107° |
| 2026-05-06 04:22 | 39.97376 | -80.54575 | 32831 ft | 541 kts | 107° |
| 2026-05-06 04:23 | 39.94238 | -80.40495 | 32843 ft | 538 kts | 107° |
| 2026-05-06 04:23 | 39.92140 | -80.31133 | 32856 ft | 538 kts | 107° |
| 2026-05-06 04:24 | 39.90051 | -80.21848 | 32849 ft | 538 kts | 107° |
| 2026-05-06 04:24 | 39.87940 | -80.12502 | 32853 ft | 537 kts | 107° |
| 2026-05-06 04:25 | 39.85905 | -80.03158 | 32868 ft | 536 kts | 104° |
| 2026-05-06 04:25 | 39.84099 | -79.93774 | 32863 ft | 536 kts | 104° |
| 2026-05-06 04:26 | 39.82251 | -79.84384 | 32876 ft | 536 kts | 104° |
| 2026-05-06 04:26 | 39.80395 | -79.75005 | 32881 ft | 533 kts | 104° |
| 2026-05-06 04:27 | 39.78550 | -79.65718 | 32852 ft | 530 kts | 104° |
| 2026-05-06 04:27 | 39.76607 | -79.56460 | 32864 ft | 530 kts | 106° |
| 2026-05-06 04:28 | 39.74564 | -79.47266 | 32878 ft | 530 kts | 106° |
| 2026-05-06 04:28 | 39.72527 | -79.38068 | 32888 ft | 529 kts | 106° |
| 2026-05-06 04:29 | 39.70489 | -79.28909 | 32638 ft | 526 kts | 106° |
| 2026-05-06 04:29 | 39.69473 | -79.24359 | 31912 ft | 525 kts | 107° |
| 2026-05-06 04:29 | 39.68450 | -79.19787 | 30867 ft | 530 kts | 108° |
| 2026-05-06 04:29 | 39.67419 | -79.15183 | 30036 ft | 530 kts | 109° |
| 2026-05-06 04:30 | 39.66397 | -79.10614 | 29315 ft | 523 kts | 108° |
| 2026-05-06 04:30 | 39.65410 | -79.06068 | 28344 ft | 524 kts | 108° |
| 2026-05-06 04:30 | 39.64431 | -79.01559 | 27814 ft | 515 kts | 108° |
| 2026-05-06 04:30 | 39.63466 | -78.97141 | 27506 ft | 506 kts | 108° |
| 2026-05-06 04:31 | 39.62519 | -78.92812 | 27060 ft | 506 kts | 108° |
| 2026-05-06 04:31 | 39.61556 | -78.88422 | 26615 ft | 506 kts | 108° |
| 2026-05-06 04:31 | 39.60589 | -78.84022 | 26141 ft | 507 kts | 108° |
| 2026-05-06 04:31 | 39.59622 | -78.79629 | 25717 ft | 508 kts | 108° |
| 2026-05-06 04:32 | 39.58649 | -78.75221 | 25260 ft | 508 kts | 108° |
| 2026-05-06 04:32 | 39.57679 | -78.70832 | 24750 ft | 509 kts | 108° |
| 2026-05-06 04:32 | 39.56702 | -78.66417 | 24280 ft | 510 kts | 108° |
| 2026-05-06 04:32 | 39.55727 | -78.61997 | 23815 ft | 510 kts | 108° |
| 2026-05-06 04:33 | 39.54790 | -78.57594 | 23185 ft | 504 kts | 108° |
| 2026-05-06 04:33 | 39.53862 | -78.53249 | 22602 ft | 495 kts | 108° |
| 2026-05-06 04:33 | 39.52947 | -78.48983 | 22007 ft | 488 kts | 108° |
| 2026-05-06 04:33 | 39.52043 | -78.44777 | 21418 ft | 482 kts | 108° |
| 2026-05-06 04:34 | 39.51144 | -78.40642 | 20840 ft | 476 kts | 109° |
| 2026-05-06 04:34 | 39.50225 | -78.36551 | 20271 ft | 470 kts | 109° |
| 2026-05-06 04:34 | 39.49321 | -78.32520 | 19796 ft | 463 kts | 109° |
| 2026-05-06 04:34 | 39.48428 | -78.28543 | 19264 ft | 457 kts | 109° |
| 2026-05-06 04:35 | 39.47543 | -78.24605 | 18715 ft | 453 kts | 109° |
| 2026-05-06 04:35 | 39.46666 | -78.20711 | 18174 ft | 449 kts | 109° |
| 2026-05-06 04:35 | 39.45795 | -78.16845 | 17572 ft | 446 kts | 109° |
| 2026-05-06 04:35 | 39.45110 | -78.12958 | 16952 ft | 445 kts | 97° |
| 2026-05-06 04:36 | 39.45097 | -78.08984 | 16502 ft | 439 kts | 91° |
| 2026-05-06 04:36 | 39.45099 | -78.05226 | 16013 ft | 435 kts | 92° |
| 2026-05-06 04:36 | 39.45096 | -78.01326 | 15499 ft | 431 kts | 92° |
| 2026-05-06 04:36 | 39.45093 | -77.97477 | 15048 ft | 426 kts | 92° |
| 2026-05-06 04:37 | 39.45091 | -77.93677 | 14704 ft | 418 kts | 92° |
| 2026-05-06 04:37 | 39.45087 | -77.89944 | 14375 ft | 411 kts | 92° |
| 2026-05-06 04:37 | 39.45083 | -77.86278 | 14070 ft | 404 kts | 92° |
| 2026-05-06 04:37 | 39.45077 | -77.82672 | 13754 ft | 398 kts | 92° |
| 2026-05-06 04:38 | 39.45070 | -77.79135 | 13410 ft | 392 kts | 92° |
| 2026-05-06 04:38 | 39.45063 | -77.75634 | 13092 ft | 386 kts | 92° |
| 2026-05-06 04:38 | 39.45042 | -77.72242 | 12857 ft | 376 kts | 93° |
| 2026-05-06 04:38 | 39.45008 | -77.68906 | 12805 ft | 369 kts | 94° |
| 2026-05-06 04:39 | 39.44975 | -77.65581 | 12744 ft | 370 kts | 93° |
| 2026-05-06 04:39 | 39.44942 | -77.62253 | 12659 ft | 370 kts | 94° |
| 2026-05-06 04:39 | 39.44909 | -77.58929 | 12547 ft | 370 kts | 94° |
| 2026-05-06 04:39 | 39.44875 | -77.55612 | 12466 ft | 367 kts | 94° |
| 2026-05-06 04:40 | 39.44839 | -77.52316 | 12371 ft | 366 kts | 94° |
| 2026-05-06 04:40 | 39.44803 | -77.49029 | 12272 ft | 365 kts | 94° |
| 2026-05-06 04:40 | 39.44766 | -77.45753 | 12181 ft | 365 kts | 94° |
| 2026-05-06 04:40 | 39.44728 | -77.42483 | 12095 ft | 363 kts | 94° |
| 2026-05-06 04:41 | 39.44690 | -77.39219 | 11993 ft | 362 kts | 94° |
| 2026-05-06 04:41 | 39.44627 | -77.35967 | 11894 ft | 361 kts | 96° |
| 2026-05-06 04:41 | 39.44494 | -77.32733 | 11792 ft | 360 kts | 96° |
| 2026-05-06 04:41 | 39.44408 | -77.30591 | 11720 ft | 359 kts | 96° |
| 2026-05-06 04:42 | 39.44281 | -77.27375 | 11634 ft | 358 kts | 96° |
| 2026-05-06 04:42 | 39.44155 | -77.24158 | 11537 ft | 357 kts | 96° |
| 2026-05-06 04:42 | 39.44032 | -77.20977 | 11436 ft | 348 kts | 96° |
| 2026-05-06 04:42 | 39.43910 | -77.17895 | 11361 ft | 337 kts | 96° |
| 2026-05-06 04:43 | 39.43792 | -77.14925 | 11265 ft | 325 kts | 96° |
| 2026-05-06 04:43 | 39.43678 | -77.12053 | 11181 ft | 317 kts | 96° |
| 2026-05-06 04:43 | 39.43564 | -77.09202 | 11071 ft | 317 kts | 96° |
| 2026-05-06 04:43 | 39.43448 | -77.06360 | 10974 ft | 315 kts | 96° |
| 2026-05-06 04:44 | 39.43330 | -77.03530 | 10737 ft | 316 kts | 96° |
| 2026-05-06 04:44 | 39.43211 | -77.00703 | 10481 ft | 315 kts | 96° |
| 2026-05-06 04:44 | 39.43091 | -76.97869 | 10096 ft | 317 kts | 96° |
| 2026-05-06 04:44 | 39.42971 | -76.95016 | 9698 ft | 318 kts | 96° |
| 2026-05-06 04:45 | 39.42848 | -76.92163 | 9347 ft | 317 kts | 96° |
| 2026-05-06 04:45 | 39.42728 | -76.89356 | 9238 ft | 307 kts | 96° |
| 2026-05-06 04:45 | 39.42613 | -76.86679 | 9253 ft | 287 kts | 96° |
| 2026-05-06 04:45 | 39.42505 | -76.84185 | 9121 ft | 270 kts | 96° |
| 2026-05-06 04:46 | 39.42403 | -76.81846 | 8890 ft | 260 kts | 97° |
| 2026-05-06 04:46 | 39.42301 | -76.79520 | 8643 ft | 251 kts | 97° |
| 2026-05-06 04:46 | 39.42204 | -76.77333 | 8415 ft | 243 kts | 97° |
| 2026-05-06 04:46 | 39.42104 | -76.75086 | 8236 ft | 254 kts | 97° |
| 2026-05-06 04:47 | 39.41810 | -76.72824 | 8040 ft | 265 kts | 112° |
| 2026-05-06 04:47 | 39.41203 | -76.70514 | 7817 ft | 274 kts | 114° |
| 2026-05-06 04:47 | 39.40572 | -76.68174 | 7598 ft | 276 kts | 115° |
| 2026-05-06 04:47 | 39.39950 | -76.65869 | 7388 ft | 265 kts | 115° |
| 2026-05-06 04:48 | 39.39352 | -76.63668 | 7186 ft | 253 kts | 115° |
| 2026-05-06 04:48 | 39.38774 | -76.61549 | 6999 ft | 250 kts | 115° |
| 2026-05-06 04:48 | 39.38196 | -76.59428 | 6820 ft | 249 kts | 116° |
| 2026-05-06 04:48 | 39.37620 | -76.57319 | 6646 ft | 248 kts | 116° |
| 2026-05-06 04:49 | 39.37047 | -76.55217 | 6486 ft | 248 kts | 116° |
| 2026-05-06 04:49 | 39.36473 | -76.53123 | 6285 ft | 246 kts | 117° |
| 2026-05-06 04:49 | 39.35573 | -76.51355 | 6025 ft | 229 kts | 147° |
| 2026-05-06 04:49 | 39.34302 | -76.50162 | 5834 ft | 226 kts | 155° |
| 2026-05-06 04:50 | 39.33002 | -76.49024 | 5687 ft | 228 kts | 153° |
| 2026-05-06 04:50 | 39.31742 | -76.47776 | 5533 ft | 228 kts | 152° |
| 2026-05-06 04:50 | 39.30523 | -76.46554 | 5306 ft | 215 kts | 152° |
| 2026-05-06 04:50 | 39.29371 | -76.45383 | 4999 ft | 209 kts | 152° |
| 2026-05-06 04:51 | 39.28238 | -76.44213 | 4592 ft | 206 kts | 154° |
| 2026-05-06 04:51 | 39.27005 | -76.43554 | 4139 ft | 184 kts | 183° |
| 2026-05-06 04:51 | 39.25767 | -76.43490 | 3807 ft | 175 kts | 189° |
| 2026-05-06 04:51 | 39.24558 | -76.43481 | 3495 ft | 173 kts | 189° |
| 2026-05-06 04:52 | 39.23361 | -76.43482 | 3187 ft | 172 kts | 189° |
| 2026-05-06 04:52 | 39.22170 | -76.43494 | 3030 ft | 170 kts | 189° |
| 2026-05-06 04:52 | 39.21019 | -76.43645 | 2981 ft | 163 kts | 202° |
| 2026-05-06 04:52 | 39.19969 | -76.44190 | 2945 ft | 163 kts | 208° |
| 2026-05-06 04:53 | 39.18938 | -76.44785 | 2818 ft | 161 kts | 208° |
| 2026-05-06 04:53 | 39.17939 | -76.45412 | 2657 ft | 158 kts | 214° |
| 2026-05-06 04:53 | 39.17297 | -76.46429 | 2580 ft | 139 kts | 237° |
| 2026-05-06 04:53 | 39.16867 | -76.47532 | 2523 ft | 137 kts | 239° |
| 2026-05-06 04:54 | 39.16478 | -76.48639 | 2449 ft | 141 kts | 249° |
| 2026-05-06 04:54 | 39.16409 | -76.49927 | 2359 ft | 147 kts | 260° |
| 2026-05-06 04:54 | 39.16463 | -76.51247 | 2203 ft | 148 kts | 261° |
| 2026-05-06 04:54 | 39.16534 | -76.52567 | 2032 ft | 148 kts | 261° |
| 2026-05-06 04:55 | 39.16610 | -76.53888 | 1867 ft | 148 kts | 261° |
| 2026-05-06 04:55 | 39.16688 | -76.55128 | 1693 ft | 128 kts | 259° |
| 2026-05-06 04:55 | 39.16750 | -76.56244 | 1509 ft | 124 kts | 260° |
| 2026-05-06 04:55 | 39.16807 | -76.57364 | 1404 ft | 127 kts | 260° |
| 2026-05-06 04:56 | 39.16874 | -76.58512 | 1222 ft | 130 kts | 261° |
| 2026-05-06 04:56 | 39.16943 | -76.59687 | 1032 ft | 133 kts | 263° |
| 2026-05-06 04:56 | 39.17004 | -76.60900 | 870 ft | 139 kts | 266° |
| 2026-05-06 04:56 | 39.17081 | -76.62170 | 689 ft | 144 kts | 269° |
| 2026-05-06 04:57 | 39.17159 | -76.63466 | 486 ft | 146 kts | 269° |
| 2026-05-06 04:57 | 39.17231 | -76.64782 | 271 ft | 148 kts | 270° |
| 2026-05-06 04:57 | 39.17310 | -76.66054 | 151 ft | 134 kts | 270° |
| 2026-05-06 04:57 | 39.17367 | -76.67090 | 153 ft | 85 kts | 274° |
| 2026-05-06 04:58 | 39.17398 | -76.67562 | 152 ft | 16 kts | 278° |
| 2026-05-06 04:58 | 39.17462 | -76.67679 | 151 ft | 19 kts | 348° |
| 2026-05-06 04:58 | 39.17507 | -76.67655 | 149 ft | 3 kts | 73° |
| 2026-05-06 04:58 | 39.17508 | -76.67629 | 149 ft | 5 kts | 88° |
| 2026-05-06 04:59 | 39.17504 | -76.67544 | 149 ft | 19 kts | 95° |
| 2026-05-06 04:59 | 39.17550 | -76.67371 | 149 ft | 20 kts | 52° |
| 2026-05-06 04:59 | 39.17613 | -76.67263 | 149 ft | 3 kts | 54° |
| 2026-05-06 04:59 | 39.17628 | -76.67237 | 150 ft | 3 kts | 54° |
| 2026-05-06 05:00 | 39.17635 | -76.67226 | 151 ft | 2 kts | 36° |
| 2026-05-06 05:00 | 39.17721 | -76.67269 | 152 ft | 24 kts | 324° |
| 2026-05-06 05:00 | 39.17878 | -76.67414 | 151 ft | 30 kts | 324° |
| 2026-05-06 05:00 | 39.17980 | -76.67481 | 152 ft | 12 kts | 24° |
| 2026-05-06 05:01 | 39.17984 | -76.67402 | 156 ft | 10 kts | 117° |
| 2026-05-06 05:01 | 39.17983 | -76.67359 | 157 ft | 4 kts | 67° |
| 2026-05-06 05:01 | 39.17994 | -76.67337 | 158 ft | 3 kts | 55° |
| 2026-05-06 05:01 | 39.18003 | -76.67320 | 158 ft | 0 kts | 54° |